Time;durP1;ratioP1;P1;durP2;ratioP2;P2;SDS_P1;SDS_P2;PMS_P1;PMS_P2;Temp;Humidity;BMP_temperature;BMP_pressure;BME280_temperature;BME280_humidity;BME280_pressure;Samples;Min_cycle;Max_cycle;Signal;HPM_P1;HPM_P2
2021/08/12 05:01:19;;;;;;;11.07;7.18;;;;;;;31.12;44.58;95070.88;5608788;23;20054;-74
2021/08/12 05:03:45;;;;;;;6.55;6.05;;;;;;;30.79;45.01;95068.22;4985540;28;20042;-74
2021/08/12 05:06:14;;;;;;;6.43;5.82;;;;;;;31.55;44.14;95068.72;4966237;28;20031;-75
2021/08/12 05:08:40;;;;;;;7.53;6.93;;;;;;;31.44;43.66;95068.09;4969102;28;20034;-75
2021/08/12 05:11:08;;;;;;;6.95;6.45;;;;;;;32.15;42.52;95078.16;4988297;28;20077;-76
2021/08/12 05:13:34;;;;;;;7.50;6.70;;;;;;;32.50;42.01;95079.19;4987666;28;20025;-76
2021/08/12 05:16:00;;;;;;;10.82;6.53;;;;;;;32.47;41.51;95079.81;4968133;28;20029;-74
2021/08/12 05:18:25;;;;;;;12.02;5.80;;;;;;;32.55;41.23;95086.34;4951311;28;20021;-77
2021/08/12 05:20:51;;;;;;;12.90;7.15;;;;;;;33.36;39.81;95085.88;4982202;28;20033;-76
2021/08/12 05:23:17;;;;;;;9.32;7.13;;;;;;;34.26;38.15;95081.66;4986714;28;20088;-76
2021/08/12 05:25:44;;;;;;;17.10;6.85;;;;;;;32.71;39.40;95088.38;4998056;28;20025;-76
2021/08/12 05:28:13;;;;;;;7.88;6.35;;;;;;;33.23;40.42;95086.00;4983126;28;20085;-76
2021/08/12 05:30:38;;;;;;;7.15;6.53;;;;;;;32.72;40.14;95081.91;4986746;28;20537;-78
2021/08/12 05:33:04;;;;;;;6.93;6.25;;;;;;;34.54;38.05;95090.22;4972133;28;20057;-76
2021/08/12 05:35:29;;;;;;;7.03;6.43;;;;;;;34.99;36.23;95084.47;4988989;28;20068;-77
2021/08/12 05:37:55;;;;;;;7.20;5.82;;;;;;;34.75;36.87;95093.84;4988537;28;20033;-76
2021/08/12 05:40:20;;;;;;;6.70;5.78;;;;;;;34.82;36.88;95096.84;4989627;28;20048;-76
2021/08/12 05:42:46;;;;;;;7.20;6.57;;;;;;;35.12;36.55;95097.78;4955402;28;20018;-76
2021/08/12 05:45:11;;;;;;;6.80;6.20;;;;;;;34.43;37.01;95103.19;4988947;28;20026;-76
2021/08/12 05:47:37;;;;;;;7.35;6.75;;;;;;;35.67;35.86;95099.63;4986421;28;20470;-75
2021/08/12 05:50:02;;;;;;;7.45;6.95;;;;;;;36.04;34.59;95104.16;5005582;28;20458;-75
2021/08/12 05:52:28;;;;;;;7.00;6.40;;;;;;;36.18;34.44;95096.63;5004619;28;20041;-76
2021/08/12 05:54:53;;;;;;;7.38;6.88;;;;;;;37.05;33.27;95110.22;4989111;28;20407;-76
2021/08/12 05:57:19;;;;;;;7.60;7.00;;;;;;;36.21;34.47;95112.16;4986817;28;20072;-75
2021/08/12 05:59:44;;;;;;;7.78;7.00;;;;;;;34.78;37.20;95097.81;4987396;28;20514;-76
2021/08/12 06:02:10;;;;;;;7.85;6.97;;;;;;;35.95;35.37;95103.44;5002059;28;20053;-76
2021/08/12 06:04:37;;;;;;;8.40;7.70;;;;;;;34.56;36.84;95101.44;5021059;28;20038;-77
2021/08/12 06:07:02;;;;;;;9.57;7.25;;;;;;;31.23;43.31;95101.72;5006226;28;20105;-77
2021/08/12 06:09:28;;;;;;;7.88;7.18;;;;;;;31.13;44.93;95108.06;5003481;28;20122;-77
2021/08/12 06:11:53;;;;;;;7.85;7.15;;;;;;;29.78;47.19;95104.47;5006686;28;20030;-76
2021/08/12 06:14:19;;;;;;;7.45;6.68;;;;;;;30.86;45.81;95109.88;5004625;28;20388;-76
2021/08/12 06:16:44;;;;;;;8.05;7.30;;;;;;;29.81;47.14;95101.22;5003259;28;20115;-78
2021/08/12 06:19:10;;;;;;;7.53;6.80;;;;;;;31.53;43.82;95105.75;5003878;28;20030;-78
2021/08/12 06:21:35;;;;;;;8.32;7.25;;;;;;;35.62;36.65;95105.97;4999608;28;20033;-78
2021/08/12 06:24:01;;;;;;;8.15;7.00;;;;;;;34.42;37.45;95106.22;5007155;28;20578;-77
2021/08/12 06:26:26;;;;;;;8.88;7.47;;;;;;;35.30;35.88;95103.88;5004667;28;20086;-78
2021/08/12 06:28:52;;;;;;;11.80;7.45;;;;;;;35.92;35.71;95110.28;5006805;28;20951;-77
2021/08/12 06:31:18;;;;;;;8.77;7.38;;;;;;;37.01;33.98;95106.59;4998719;28;20038;-75
2021/08/12 06:33:43;;;;;;;8.68;7.82;;;;;;;36.63;34.39;95104.88;5022353;28;20026;-76
2021/08/12 06:36:09;;;;;;;9.15;8.25;;;;;;;36.83;33.49;95108.66;5006119;28;20040;-75
2021/08/12 06:38:35;;;;;;;8.90;8.15;;;;;;;34.29;37.50;95112.56;4988028;28;20029;-77
2021/08/12 06:41:00;;;;;;;8.13;7.30;;;;;;;32.15;41.98;95114.91;5007356;28;20033;-76
2021/08/12 06:43:26;;;;;;;8.82;8.05;;;;;;;29.35;46.62;95113.53;4988482;28;20033;-77
2021/08/12 06:45:51;;;;;;;8.75;8.15;;;;;;;29.22;47.67;95117.66;5007901;28;20044;-76
2021/08/12 06:48:17;;;;;;;9.18;8.38;;;;;;;30.37;45.25;95110.38;5022466;28;20113;-76
2021/08/12 06:50:43;;;;;;;7.85;7.07;;;;;;;30.57;45.14;95108.19;5007476;28;20121;-76
2021/08/12 06:53:08;;;;;;;7.53;6.93;;;;;;;31.58;43.75;95109.09;5008282;28;20110;-76
2021/08/12 06:55:35;;;;;;;7.30;6.80;;;;;;;30.71;44.16;95103.69;5006237;28;20136;-76
2021/08/12 06:58:02;;;;;;;7.55;6.88;;;;;;;34.52;37.43;95078.97;5004466;28;20042;-76
2021/08/12 07:00:28;;;;;;;9.38;7.55;;;;;;;36.62;33.88;95110.59;5002291;28;20034;-76
2021/08/12 07:02:54;;;;;;;7.75;7.18;;;;;;;38.21;32.23;95113.22;4973322;28;20034;-78
2021/08/12 07:05:20;;;;;;;9.93;6.55;;;;;;;31.81;40.27;95118.81;4971512;28;20030;-74
2021/08/12 07:07:45;;;;;;;8.07;6.72;;;;;;;31.68;42.12;95114.25;4949620;28;20038;-76
2021/08/12 07:10:11;;;;;;;7.65;6.82;;;;;;;31.66;43.21;95111.06;4987287;28;20679;-76
2021/08/12 07:12:37;;;;;;;8.75;7.85;;;;;;;30.13;45.45;95107.78;4954303;28;20689;-76
2021/08/12 07:15:05;;;;;;;7.60;7.00;;;;;;;31.16;44.82;95107.47;4971567;28;20136;-76
2021/08/12 07:17:31;;;;;;;9.65;7.18;;;;;;;31.21;44.10;95112.72;4986939;28;20030;-76
2021/08/12 07:19:56;;;;;;;9.25;7.22;;;;;;;31.59;43.26;95110.69;4987553;28;20034;-76
2021/08/12 07:22:22;;;;;;;8.02;6.97;;;;;;;29.33;47.78;95107.69;4968154;28;20037;-75
2021/08/12 07:24:47;;;;;;;9.20;6.93;;;;;;;30.54;45.81;95106.09;4953601;28;20031;-76
2021/08/12 07:27:13;;;;;;;8.50;7.35;;;;;;;30.07;46.33;95108.94;4974045;28;20034;-77
2021/08/12 07:29:38;;;;;;;7.60;6.82;;;;;;;30.99;44.77;95101.88;4987625;28;20076;-76
2021/08/12 07:32:04;;;;;;;8.23;7.50;;;;;;;30.21;46.44;95104.47;4955139;28;20035;-76
2021/08/12 07:34:30;;;;;;;7.53;6.82;;;;;;;31.24;44.57;95108.69;4963707;28;20503;-76
2021/08/12 07:36:55;;;;;;;7.00;6.45;;;;;;;31.32;43.92;95114.13;4968897;28;20031;-76
2021/08/12 07:39:21;;;;;;;7.10;6.60;;;;;;;31.44;44.47;95102.91;4986844;28;20057;-77
2021/08/12 07:41:46;;;;;;;6.88;6.38;;;;;;;31.49;44.15;95113.56;4970112;28;20038;-75
2021/08/12 07:44:13;;;;;;;6.00;5.47;;;;;;;31.74;43.71;95113.06;4970672;28;20026;-75
2021/08/12 07:46:39;;;;;;;9.55;6.10;;;;;;;31.92;43.08;95119.38;4971683;28;20034;-75
2021/08/12 07:49:05;;;;;;;6.38;5.88;;;;;;;31.78;43.56;95116.75;4987371;28;20085;-74
2021/08/12 07:51:30;;;;;;;7.28;5.90;;;;;;;31.70;44.37;95125.47;4987988;28;20030;-76
2021/08/12 07:53:56;;;;;;;6.65;6.00;;;;;;;31.96;44.02;95123.06;4987830;28;20034;-75
2021/08/12 07:56:21;;;;;;;6.43;6.03;;;;;;;31.96;43.49;95120.38;4970237;28;20050;-75
2021/08/12 07:58:47;;;;;;;6.55;5.93;;;;;;;31.61;44.60;95116.53;4971136;28;20034;-77
2021/08/12 08:01:15;;;;;;;6.28;5.85;;;;;;;31.62;43.80;95118.16;4974565;28;20045;-79
2021/08/12 08:03:41;;;;;;;7.87;6.47;;;;;;;31.34;44.57;95117.31;4996314;28;20026;-78
2021/08/12 08:06:06;;;;;;;7.20;6.63;;;;;;;31.85;43.70;95117.09;4994759;28;20048;-78
2021/08/12 08:08:32;;;;;;;6.95;6.30;;;;;;;32.45;42.83;95113.41;5022155;28;20084;-80
2021/08/12 08:10:57;;;;;;;6.05;5.63;;;;;;;31.43;43.35;95114.75;4988644;28;20037;-79
2021/08/12 08:13:23;;;;;;;6.50;5.95;;;;;;;31.73;44.54;95111.47;4980140;28;20088;-82
2021/08/12 08:15:48;;;;;;;8.05;5.75;;;;;;;31.93;42.85;95117.50;5007230;28;20094;-81
2021/08/12 08:18:14;;;;;;;7.63;5.40;;;;;;;32.21;42.39;95108.31;5004912;28;20026;-83
2021/08/12 08:20:39;;;;;;;5.95;5.55;;;;;;;32.14;42.79;95103.38;4990367;28;20022;-85
2021/08/12 08:23:06;;;;;;;6.05;5.45;;;;;;;32.23;42.24;95098.91;4988250;28;20044;-83
2021/08/12 08:25:32;;;;;;;5.93;5.45;;;;;;;32.30;41.57;95101.16;5007476;28;20495;-81
2021/08/12 08:27:58;;;;;;;5.95;5.55;;;;;;;32.39;42.22;95107.38;5005416;28;20041;-82
2021/08/12 08:30:23;;;;;;;5.18;4.78;;;;;;;32.48;42.27;95102.88;5007472;28;20025;-80
2021/08/12 08:32:49;;;;;;;6.13;5.63;;;;;;;32.70;41.19;95094.03;5008185;28;20446;-87
2021/08/12 08:35:14;;;;;;;5.63;5.05;;;;;;;33.25;41.10;95100.69;5005477;28;20473;-82
2021/08/12 08:37:40;;;;;;;5.93;5.30;;;;;;;33.32;40.55;95100.25;5006765;28;20037;-82
2021/08/12 08:40:06;;;;;;;6.75;4.93;;;;;;;33.46;40.08;95103.59;4988068;28;20029;-84
2021/08/12 08:42:31;;;;;;;5.55;5.03;;;;;;;33.49;39.29;95100.28;5005911;28;20038;-81
2021/08/12 08:44:57;;;;;;;5.38;4.93;;;;;;;33.38;40.27;95104.38;4989043;28;20069;-81
2021/08/12 08:47:22;;;;;;;5.35;4.95;;;;;;;32.65;39.24;95099.56;4974126;28;20653;-79
2021/08/12 08:49:48;;;;;;;5.32;4.93;;;;;;;33.20;39.94;95108.88;5005707;28;20410;-81
2021/08/12 08:52:13;;;;;;;5.50;5.00;;;;;;;32.30;41.42;95101.94;5004871;28;20462;-82
2021/08/12 08:54:40;;;;;;;5.80;5.28;;;;;;;33.19;39.78;95101.16;5003996;28;20034;-82
2021/08/12 08:57:06;;;;;;;6.05;5.18;;;;;;;32.83;41.75;95093.19;4991181;28;20026;-83
2021/08/12 08:59:34;;;;;;;5.35;4.95;;;;;;;34.02;38.80;95092.09;5001060;28;20034;-80
2021/08/12 09:02:01;;;;;;;7.68;5.15;;;;;;;33.00;38.84;95090.59;5015017;28;20104;-78
2021/08/12 09:04:26;;;;;;;7.30;5.13;;;;;;;32.81;40.74;95079.28;5004535;28;20042;-79
2021/08/12 09:06:52;;;;;;;5.55;5.07;;;;;;;32.75;40.45;95083.97;4984504;28;20127;-79
2021/08/12 09:09:17;;;;;;;5.70;5.30;;;;;;;31.71;41.79;95094.09;5002202;28;20024;-80
2021/08/12 09:11:43;;;;;;;5.97;5.50;;;;;;;32.18;41.64;95084.78;4999546;28;20029;-79
2021/08/12 09:14:30;;;;;;;5.97;5.47;;;;;;;31.81;41.85;95089.34;4970585;28;20022;-79
2021/08/12 09:16:56;;;;;;;6.95;5.50;;;;;;;31.88;42.11;95089.69;5002765;28;20523;-79
2021/08/12 09:19:22;;;;;;;5.63;5.00;;;;;;;31.79;41.59;95088.03;4998557;28;20032;-85
2021/08/12 09:21:54;;;;;;;5.95;5.15;;;;;;;32.24;40.74;95095.09;4987224;28;20029;-79
2021/08/12 09:24:20;;;;;;;6.00;5.53;;;;;;;31.64;42.05;95089.16;5006786;28;20096;-78
2021/08/12 09:26:46;;;;;;;6.07;5.60;;;;;;;31.21;43.84;95096.66;5005439;28;20372;-78
2021/08/12 09:29:11;;;;;;;7.53;5.93;;;;;;;30.98;44.87;95086.94;4990339;28;20034;-78
2021/08/12 09:32:03;;;;;;;6.57;5.97;;;;;;;30.96;45.33;95093.66;5005023;28;20022;-77
2021/08/12 09:34:43;;;;;;;7.05;6.35;;;;;;;31.02;45.72;95093.25;5006832;28;20435;-77
2021/08/12 09:37:08;;;;;;;7.45;6.78;;;;;;;30.77;45.83;95089.13;5005085;28;20487;-79
2021/08/12 09:39:34;;;;;;;11.02;6.65;;;;;;;30.65;46.94;95091.47;5005689;28;20032;-79
2021/08/12 09:42:00;;;;;;;9.30;6.18;;;;;;;30.54;47.75;95087.38;5005701;28;20034;-79
2021/08/12 09:44:36;;;;;;;10.30;6.65;;;;;;;30.18;47.88;95094.34;4988219;28;20033;-75
2021/08/12 09:47:06;;;;;;;8.05;6.43;;;;;;;30.27;46.52;95088.06;5006883;28;20022;-74
2021/08/12 09:49:48;;;;;;;8.07;6.47;;;;;;;30.46;46.36;95092.59;5001503;28;20030;-75
2021/08/12 09:52:29;;;;;;;10.57;6.45;;;;;;;30.37;47.56;95088.97;5004406;28;20222;-75
2021/08/12 09:54:59;;;;;;;6.57;6.07;;;;;;;30.15;47.71;95090.34;5003914;28;20160;-75
2021/08/12 09:57:25;;;;;;;8.32;6.80;;;;;;;29.94;47.82;95077.56;4990449;28;20030;-74
2021/08/12 09:59:54;;;;;;;15.13;6.95;;;;;;;29.84;49.33;95075.03;4970497;28;20025;-75
2021/08/12 10:02:20;;;;;;;12.30;6.60;;;;;;;30.04;48.26;95078.22;4952980;28;20073;-75
2021/08/12 10:04:45;;;;;;;10.45;6.13;;;;;;;30.71;48.13;95089.50;4970465;28;20415;-74
2021/08/12 10:07:39;;;;;;;10.20;6.93;;;;;;;30.64;48.37;95081.84;4985420;28;20026;-75
2021/08/12 10:10:18;;;;;;;8.63;6.80;;;;;;;30.63;48.45;95087.53;4986769;28;20027;-76
2021/08/12 10:12:46;;;;;;;11.40;6.65;;;;;;;30.92;47.11;95082.69;4954784;28;20403;-74
2021/08/12 10:15:17;;;;;;;9.18;6.82;;;;;;;30.92;46.83;95088.06;4973754;28;20136;-74
2021/08/12 10:17:43;;;;;;;7.95;6.32;;;;;;;31.20;46.40;95079.03;4993366;28;20045;-75
2021/08/12 10:20:13;;;;;;;11.15;7.03;;;;;;;31.71;46.61;95086.06;5004553;28;20447;-77
2021/08/12 10:22:39;;;;;;;7.60;7.00;;;;;;;31.37;45.47;95091.03;5025670;28;20038;-75
2021/08/12 10:25:05;;;;;;;10.68;5.85;;;;;;;31.78;44.77;95094.50;5009540;28;20026;-75
2021/08/12 10:27:31;;;;;;;6.47;5.70;;;;;;;31.76;43.66;95100.16;5007824;28;20041;-76
2021/08/12 10:29:56;;;;;;;11.05;5.63;;;;;;;31.38;44.26;95093.41;5006118;28;20177;-76
2021/08/12 10:32:22;;;;;;;10.18;5.75;;;;;;;31.16;45.13;95106.69;4967613;28;20479;-75
2021/08/12 10:34:48;;;;;;;7.72;5.90;;;;;;;30.65;44.13;95096.03;5023777;28;20072;-76
2021/08/12 10:37:13;;;;;;;5.80;5.40;;;;;;;30.68;44.44;95093.56;5007947;28;20034;-77
2021/08/12 10:39:40;;;;;;;6.25;5.75;;;;;;;30.50;45.92;95098.97;5010946;28;20032;-76
2021/08/12 10:42:06;;;;;;;7.13;6.00;;;;;;;30.61;45.27;95103.06;5008221;28;20040;-77
2021/08/12 10:44:32;;;;;;;8.55;5.30;;;;;;;30.38;45.29;95098.56;4991780;28;20684;-76
2021/08/12 10:46:57;;;;;;;6.80;6.13;;;;;;;30.32;45.53;95073.78;5008167;28;20108;-76
2021/08/12 10:49:24;;;;;;;10.50;6.30;;;;;;;30.25;47.77;95089.41;4990805;28;20434;-77
2021/08/12 10:52:00;;;;;;;8.93;6.13;;;;;;;30.28;49.17;95091.50;4985794;28;20508;-75
2021/08/12 10:54:26;;;;;;;15.20;7.00;;;;;;;30.31;48.98;95093.63;4986623;28;20037;-76
2021/08/12 10:56:54;;;;;;;9.68;6.25;;;;;;;30.40;48.72;95101.78;5007152;28;20033;-75
2021/08/12 10:59:35;;;;;;;13.13;7.07;;;;;;;30.09;50.07;95107.56;4991388;28;20129;-75
2021/08/12 11:02:01;;;;;;;12.52;6.82;;;;;;;30.22;49.60;95114.84;5007543;28;20459;-78
2021/08/12 11:04:50;;;;;;;7.00;6.40;;;;;;;29.92;50.25;95109.94;5007536;28;20041;-75
2021/08/12 11:07:34;;;;;;;6.25;5.75;;;;;;;30.00;49.25;95105.81;5005866;28;20030;-76
2021/08/12 11:10:00;;;;;;;6.72;5.82;;;;;;;29.73;48.70;95099.19;5009110;28;20104;-76
2021/08/12 11:12:57;;;;;;;6.50;5.90;;;;;;;29.77;47.85;95110.91;5024279;28;20045;-75
2021/08/12 11:15:37;;;;;;;6.53;5.45;;;;;;;29.62;48.80;95112.97;5004832;28;20124;-76
2021/08/12 11:18:07;;;;;;;5.22;4.82;;;;;;;29.73;47.38;95112.53;5006449;28;20079;-77
2021/08/12 11:20:37;;;;;;;5.25;4.75;;;;;;;29.61;46.84;95116.72;5007164;28;20087;-76
2021/08/12 11:23:34;;;;;;;5.22;4.82;;;;;;;29.61;45.13;95117.50;5008240;28;20065;-77
2021/08/12 11:26:01;;;;;;;5.22;4.90;;;;;;;29.60;45.25;95115.13;4994200;28;20581;-77
2021/08/12 11:28:39;;;;;;;5.47;4.97;;;;;;;29.32;45.26;95124.78;5006265;28;20400;-74
2021/08/12 11:31:24;;;;;;;5.90;4.43;;;;;;;29.29;44.28;95120.00;5002516;28;20052;-75
2021/08/12 11:33:54;;;;;;;5.88;4.90;;;;;;;29.58;44.55;95122.63;5005084;28;20033;-75
2021/08/12 11:36:28;;;;;;;5.40;5.00;;;;;;;29.05;45.74;95103.16;5006985;28;20033;-75
2021/08/12 11:39:00;;;;;;;5.90;5.40;;;;;;;29.03;45.86;95116.78;5008554;28;20069;-76
2021/08/12 11:41:27;;;;;;;5.57;5.10;;;;;;;28.59;46.48;95124.88;4990086;28;20026;-76
2021/08/12 11:43:52;;;;;;;6.43;5.82;;;;;;;28.35;47.46;95109.88;5004348;28;20038;-76
2021/08/12 11:46:18;;;;;;;6.00;5.47;;;;;;;28.33;47.60;95096.81;4986852;28;20403;-76
2021/08/12 11:48:44;;;;;;;5.40;4.90;;;;;;;28.59;46.61;95084.88;4981262;28;20491;-76
2021/08/12 11:51:09;;;;;;;5.47;5.00;;;;;;;28.89;46.58;95093.72;4990904;28;20141;-76
2021/08/12 11:53:48;;;;;;;5.57;5.18;;;;;;;28.94;47.27;95097.13;4990635;28;20084;-76
2021/08/12 11:56:25;;;;;;;6.13;4.65;;;;;;;29.04;45.78;95065.00;5006510;28;20026;-76
2021/08/12 11:58:57;;;;;;;5.88;5.30;;;;;;;29.62;44.70;95086.25;5002415;28;20085;-76
2021/08/12 12:01:24;;;;;;;5.47;4.97;;;;;;;29.76;44.48;95082.56;5023131;28;20111;-77
2021/08/12 12:04:05;;;;;;;5.32;4.72;;;;;;;29.88;43.58;95081.41;5004160;28;20044;-76
2021/08/12 12:06:40;;;;;;;5.00;4.50;;;;;;;29.66;43.63;95090.75;4989545;28;20380;-77
2021/08/12 12:09:18;;;;;;;5.85;5.25;;;;;;;29.26;44.19;95093.88;5005574;28;20407;-76
2021/08/12 12:11:54;;;;;;;6.05;4.97;;;;;;;29.54;43.82;95082.34;5004752;28;20483;-77
2021/08/12 12:14:21;;;;;;;4.90;4.47;;;;;;;29.64;43.01;95084.88;4999014;28;20561;-78
2021/08/12 12:17:18;;;;;;;5.75;4.72;;;;;;;29.60;43.03;95078.53;4988275;28;20026;-78
2021/08/12 12:20:10;;;;;;;5.38;4.70;;;;;;;30.30;41.61;95075.97;5021425;28;20101;-78
2021/08/12 12:22:37;;;;;;;5.18;4.78;;;;;;;30.92;37.82;95066.66;5006537;28;20071;-77
2021/08/12 12:25:04;;;;;;;5.18;3.97;;;;;;;31.56;33.77;95062.28;4984847;28;20076;-80
2021/08/12 12:27:30;;;;;;;5.68;5.00;;;;;;;31.65;35.52;95061.28;4995199;28;20991;-80
2021/08/12 12:30:10;;;;;;;7.50;4.50;;;;;;;32.01;34.73;95050.56;5017073;28;20034;-79
2021/08/12 12:32:37;;;;;;;5.22;4.72;;;;;;;31.80;34.97;95057.47;4983392;28;20030;-80
2021/08/12 12:35:05;;;;;;;6.20;5.50;;;;;;;31.34;34.85;95050.34;4979730;28;20087;-79
2021/08/12 12:37:31;;;;;;;5.13;4.65;;;;;;;32.47;34.47;95042.25;5003718;28;20033;-78
2021/08/12 12:39:57;;;;;;;5.13;4.57;;;;;;;32.06;33.57;95041.63;5004969;28;20038;-78
2021/08/12 12:42:22;;;;;;;6.65;5.05;;;;;;;32.28;33.60;95038.97;5019231;28;20431;-79
2021/08/12 12:45:07;;;;;;;5.00;4.60;;;;;;;32.53;32.74;95029.47;5010322;28;20484;-78
2021/08/12 12:47:33;;;;;;;6.63;4.68;;;;;;;32.59;33.67;95021.03;5003800;28;20026;-78
2021/08/12 12:50:09;;;;;;;5.07;4.50;;;;;;;32.02;33.23;95030.69;4997074;28;20365;-78
2021/08/12 12:52:35;;;;;;;4.82;4.50;;;;;;;32.63;33.89;95024.69;4996114;28;20105;-78
2021/08/12 12:55:01;;;;;;;5.78;4.80;;;;;;;32.11;34.85;95028.13;5001781;28;20042;-80
2021/08/12 12:57:32;;;;;;;6.05;4.40;;;;;;;31.77;34.84;95028.59;4993125;28;20026;-77
2021/08/12 12:59:58;;;;;;;5.63;5.05;;;;;;;32.23;34.70;95006.91;5003188;28;20435;-77
2021/08/12 13:02:23;;;;;;;4.60;4.30;;;;;;;32.63;34.21;95018.53;5000284;28;20054;-76
2021/08/12 13:04:58;;;;;;;4.68;4.25;;;;;;;32.04;34.10;95015.13;4990865;28;20072;-77
2021/08/12 13:07:24;;;;;;;4.40;4.13;;;;;;;32.37;34.75;95012.97;4986598;28;20128;-76
2021/08/12 13:09:49;;;;;;;4.80;4.30;;;;;;;32.40;33.27;95015.03;5004458;28;20093;-76
2021/08/12 13:12:29;;;;;;;7.40;4.78;;;;;;;32.67;34.60;95011.44;5003417;28;20041;-75
2021/08/12 13:15:10;;;;;;;4.97;4.57;;;;;;;32.47;33.96;95004.69;5020805;28;20033;-77
2021/08/12 13:17:36;;;;;;;6.05;4.60;;;;;;;32.62;33.05;95015.06;5002872;28;20038;-77
2021/08/12 13:20:11;;;;;;;5.43;4.78;;;;;;;32.12;33.43;95013.59;5003277;28;20037;-78
2021/08/12 13:22:40;;;;;;;4.97;4.57;;;;;;;32.00;33.33;95018.69;5005560;28;20030;-78
2021/08/12 13:25:09;;;;;;;;;;;;;;;31.58;34.43;95009.97;5003417;28;20029;-76
2021/08/12 13:27:43;;;;;;;4.47;4.00;;;;;;;32.51;33.76;95005.66;5003737;28;20246;-78
2021/08/12 13:30:13;;;;;;;5.15;4.75;;;;;;;32.66;32.98;95010.66;5003328;28;20064;-81
2021/08/12 13:32:39;;;;;;;5.18;4.57;;;;;;;32.43;32.82;95002.94;5005558;28;20030;-78
2021/08/12 13:35:04;;;;;;;4.82;4.43;;;;;;;32.15;32.60;94996.91;5002450;28;20033;-76
2021/08/12 13:37:30;;;;;;;4.45;4.13;;;;;;;32.41;32.76;94992.50;4993744;28;20026;-78
2021/08/12 13:39:56;;;;;;;4.25;3.88;;;;;;;32.77;32.26;94992.41;5005604;28;20037;-79
2021/08/12 13:42:22;;;;;;;6.10;4.20;;;;;;;32.83;31.49;95001.91;5002845;28;20034;-79
2021/08/12 13:44:47;;;;;;;4.60;4.07;;;;;;;32.42;32.10;95002.13;5020837;28;20053;-79
2021/08/12 13:47:14;;;;;;;5.00;4.30;;;;;;;32.19;31.32;94995.19;4969531;28;20415;-79
2021/08/12 13:49:39;;;;;;;4.68;3.92;;;;;;;32.30;31.34;94993.88;4988391;28;20065;-78
2021/08/12 13:52:05;;;;;;;4.15;3.85;;;;;;;32.37;31.89;94989.63;5003569;28;20061;-79
2021/08/12 13:54:31;;;;;;;4.35;3.95;;;;;;;31.79;32.59;94989.66;4997102;28;20029;-79
2021/08/12 13:56:56;;;;;;;5.80;4.10;;;;;;;31.88;32.88;94988.94;5007200;28;20061;-80
2021/08/12 13:59:22;;;;;;;4.55;3.78;;;;;;;32.00;32.30;94994.56;5007313;28;20038;-76
2021/08/12 14:01:48;;;;;;;4.90;4.50;;;;;;;31.97;31.66;94984.44;5007903;28;20499;-76
2021/08/12 14:04:13;;;;;;;4.82;4.43;;;;;;;31.59;32.28;94989.34;5007071;28;20034;-78
2021/08/12 14:06:39;;;;;;;4.10;3.80;;;;;;;31.02;33.70;94996.13;5023808;28;20553;-80
2021/08/12 14:09:05;;;;;;;6.07;4.13;;;;;;;30.94;33.66;94992.22;4986230;28;20030;-77
2021/08/12 14:11:31;;;;;;;4.28;3.97;;;;;;;31.58;32.64;94990.41;4978309;28;20035;-77
2021/08/12 14:13:56;;;;;;;4.10;3.80;;;;;;;31.84;32.63;94994.91;4978545;28;20037;-77
2021/08/12 14:16:22;;;;;;;6.03;3.97;;;;;;;31.71;32.48;94990.38;5015004;28;20045;-77
2021/08/12 14:18:48;;;;;;;4.30;4.00;;;;;;;31.06;33.34;94989.06;4997177;28;20038;-78
2021/08/12 14:21:15;;;;;;;4.10;3.80;;;;;;;31.24;33.22;94986.28;4999811;28;20034;-79
2021/08/12 14:23:41;;;;;;;4.72;4.32;;;;;;;31.19;33.45;94990.94;4991379;28;20176;-78
2021/08/12 14:26:06;;;;;;;7.35;4.50;;;;;;;31.05;33.40;94990.19;4999180;28;20120;-78
2021/08/12 14:28:32;;;;;;;4.82;3.90;;;;;;;31.07;34.07;94987.97;5007811;28;20466;-76
2021/08/12 14:31:00;;;;;;;4.57;4.03;;;;;;;31.08;34.96;94990.34;5006201;28;20018;-78
2021/08/12 14:33:26;;;;;;;11.70;10.45;;;;;;;30.83;34.12;94998.84;5006367;28;20153;-79
2021/08/12 14:35:52;;;;;;;8.30;7.80;;;;;;;30.75;34.30;94999.53;5006583;28;20074;-77
2021/08/12 14:38:17;;;;;;;29.35;27.38;;;;;;;30.94;34.32;95005.59;5000168;28;20038;-78
2021/08/12 14:40:44;;;;;;;12.30;11.23;;;;;;;31.29;34.02;95001.44;4983648;28;20092;-78
2021/08/12 14:43:10;;;;;;;8.07;7.47;;;;;;;31.61;33.24;95006.69;5019806;28;20442;-78
2021/08/12 14:45:35;;;;;;;91.53;10.45;;;;;;;31.39;32.92;95003.91;4997556;28;20034;-78
2021/08/12 14:48:01;;;;;;;6.38;5.10;;;;;;;31.92;33.09;95008.69;5002616;28;20038;-81
2021/08/12 14:50:27;;;;;;;4.70;4.30;;;;;;;31.68;33.65;95001.72;5007627;28;20026;-78
2021/08/12 14:52:53;;;;;;;88.78;72.60;;;;;;;31.77;32.87;95007.94;4989848;28;20018;-78
2021/08/12 14:55:19;;;;;;;51.40;39.25;;;;;;;31.61;32.65;95004.00;4998398;28;20088;-78
2021/08/12 14:57:44;;;;;;;8.52;7.72;;;;;;;31.32;32.99;95011.56;4982612;28;20116;-78
2021/08/12 15:00:10;;;;;;;4.70;4.30;;;;;;;31.28;33.24;95005.22;4987179;28;20475;-80
2021/08/12 15:02:36;;;;;;;4.43;3.60;;;;;;;31.36;32.32;94996.50;4988339;28;20109;-76
2021/08/12 15:05:02;;;;;;;10.77;9.80;;;;;;;31.62;31.94;95010.97;4985735;28;20034;-78
2021/08/12 15:07:27;;;;;;;5.28;4.88;;;;;;;31.57;32.30;95019.09;5005390;28;20488;-79
2021/08/12 15:09:52;;;;;;;6.85;5.60;;;;;;;31.86;34.73;95024.09;5000134;28;20404;-79
2021/08/12 15:12:18;;;;;;;4.82;4.40;;;;;;;31.84;35.06;95024.41;5007348;28;20026;-78
2021/08/12 15:14:44;;;;;;;5.20;4.28;;;;;;;31.68;36.24;95015.13;5007003;28;20026;-78
2021/08/12 15:17:10;;;;;;;5.30;4.28;;;;;;;31.27;35.86;95011.69;4989691;28;20022;-78
2021/08/12 15:19:35;;;;;;;4.53;4.10;;;;;;;31.44;36.04;95011.84;5023359;28;20034;-77
2021/08/12 15:22:01;;;;;;;5.32;4.40;;;;;;;31.87;35.63;95014.97;5004950;28;20392;-77
2021/08/12 15:24:26;;;;;;;6.10;4.65;;;;;;;31.65;35.67;95015.72;5008402;28;20022;-76
2021/08/12 15:26:54;;;;;;;4.93;4.50;;;;;;;31.66;35.24;95014.59;5005226;28;20025;-77
2021/08/12 15:29:19;;;;;;;5.25;4.72;;;;;;;31.35;35.55;95010.97;5007054;28;20041;-78
2021/08/12 15:31:45;;;;;;;5.55;5.05;;;;;;;30.94;35.77;95015.50;5005122;28;20038;-77
2021/08/12 15:34:10;;;;;;;10.57;5.10;;;;;;;30.93;36.83;95013.91;5005271;28;20045;-77
2021/08/12 15:36:36;;;;;;;6.93;4.93;;;;;;;30.85;37.84;95015.41;5021010;28;20096;-77
2021/08/12 15:39:01;;;;;;;40.22;7.65;;;;;;;30.71;37.90;95017.28;5002106;28;20062;-76
2021/08/12 15:41:26;;;;;;;66.28;9.15;;;;;;;30.55;38.36;95024.78;5022126;28;20030;-77
2021/08/12 15:43:52;;;;;;;21.13;6.72;;;;;;;30.24;38.20;95023.66;5000435;28;20045;-78
2021/08/12 15:46:20;;;;;;;8.00;5.60;;;;;;;30.21;39.00;95025.03;5013031;28;20041;-81
2021/08/12 15:48:46;;;;;;;5.28;4.88;;;;;;;30.14;38.62;95018.47;5004785;28;20022;-81
2021/08/12 15:51:14;;;;;;;9.85;4.93;;;;;;;30.05;39.15;95029.06;5022607;28;20033;-81
2021/08/12 15:53:40;;;;;;;5.72;5.07;;;;;;;29.78;40.80;95021.66;5007810;28;20049;-83
2021/08/12 15:56:05;;;;;;;4.70;4.35;;;;;;;29.65;40.89;95029.59;5004813;28;20503;-82
2021/08/12 15:58:30;;;;;;;5.40;4.47;;;;;;;29.63;41.71;95024.56;5006126;28;20488;-82
2021/08/12 16:00:56;;;;;;;6.35;4.78;;;;;;;29.58;39.98;95021.94;5004380;28;20042;-83
2021/08/12 16:03:21;;;;;;;5.68;5.00;;;;;;;29.55;40.38;95021.72;5003593;28;20042;-82
2021/08/12 16:05:47;;;;;;;10.85;6.00;;;;;;;29.57;40.37;95023.00;5004118;28;20026;-82
2021/08/12 16:08:12;;;;;;;5.55;4.82;;;;;;;29.42;40.40;95023.22;5007044;28;20034;-84
2021/08/12 16:10:38;;;;;;;5.28;4.70;;;;;;;29.38;41.45;95024.09;4972592;28;20496;-83
2021/08/12 16:13:03;;;;;;;8.65;4.63;;;;;;;29.41;42.05;95032.28;4986998;28;20628;-83
2021/08/12 16:15:29;;;;;;;5.28;4.78;;;;;;;29.45;40.80;95027.19;5009869;28;20826;-83
2021/08/12 16:17:54;;;;;;;8.40;4.32;;;;;;;29.47;41.63;95036.50;4985271;28;20038;-79
2021/08/12 16:20:23;;;;;;;4.78;4.22;;;;;;;29.40;41.32;95033.41;5001051;28;20663;-80
2021/08/12 16:22:49;;;;;;;5.50;4.97;;;;;;;29.36;40.21;95040.38;4987792;28;20673;-82
2021/08/12 16:25:14;;;;;;;5.00;4.53;;;;;;;29.26;40.68;95033.28;5003610;28;20040;-82
2021/08/12 16:27:40;;;;;;;7.97;4.50;;;;;;;29.28;38.63;95041.78;5004711;28;20554;-82
2021/08/12 16:30:06;;;;;;;5.15;3.80;;;;;;;29.14;38.04;95040.09;5020749;28;20510;-81
2021/08/12 17:14:16;;;;;;;7.85;3.45;;;;;;;27.10;39.91;95070.25;5098082;27;20415;-70
2021/08/12 17:16:41;;;;;;;14.23;3.60;;;;;;;26.91;40.49;95071.88;5097839;28;20047;-70